AB776 CYGK-CYVO
Flight info
| Callsign | AB776 |
|---|---|
| Flight time | 1h 3m |
| Altitude | 22000 |
| Route | YVO |
| Aircraft | PC12/L-SDFGRWY/S |
Departure
| Time | 2026-04-28 00:15 |
|---|---|
| Airport | Kingston Norman Rogers Airport (CYGK) |
Arrival
| Time | 2026-04-28 01:19 |
|---|---|
| Airport | Val-d'Or Airport (CYVO) |
| Time | Latitude | Longitude | Altitude | Speed | Heading |
|---|---|---|---|---|---|
| 2026-04-28 00:02 | 44.21844 | -76.59908 | 300 ft | 0 kts | 51° |
| 2026-04-28 00:10 | 44.21849 | -76.59900 | 304 ft | 5 kts | 51° |
| 2026-04-28 00:11 | 44.21892 | -76.59880 | 301 ft | 8 kts | 11° |
| 2026-04-28 00:11 | 44.21945 | -76.59818 | 301 ft | 13 kts | 53° |
| 2026-04-28 00:11 | 44.22003 | -76.59712 | 301 ft | 14 kts | 53° |
| 2026-04-28 00:11 | 44.22063 | -76.59598 | 300 ft | 15 kts | 54° |
| 2026-04-28 00:12 | 44.22117 | -76.59497 | 300 ft | 13 kts | 53° |
| 2026-04-28 00:12 | 44.22173 | -76.59392 | 302 ft | 14 kts | 51° |
| 2026-04-28 00:12 | 44.22255 | -76.59365 | 302 ft | 13 kts | 353° |
| 2026-04-28 00:12 | 44.22345 | -76.59382 | 301 ft | 13 kts | 0° |
| 2026-04-28 00:13 | 44.22410 | -76.59291 | 300 ft | 14 kts | 51° |
| 2026-04-28 00:13 | 44.22471 | -76.59178 | 302 ft | 15 kts | 52° |
| 2026-04-28 00:13 | 44.22521 | -76.59058 | 300 ft | 15 kts | 84° |
| 2026-04-28 00:13 | 44.22541 | -76.59046 | 300 ft | 9 kts | 232° |
| 2026-04-28 00:14 | 44.22537 | -76.59053 | 302 ft | 0 kts | 233° |
| 2026-04-28 00:14 | 44.22527 | -76.59072 | 304 ft | 16 kts | 233° |
| 2026-04-28 00:14 | 44.22362 | -76.59382 | 301 ft | 64 kts | 233° |
| 2026-04-28 00:14 | 44.22021 | -76.60008 | 380 ft | 92 kts | 236° |
| 2026-04-28 00:15 | 44.21619 | -76.60809 | 568 ft | 110 kts | 238° |
| 2026-04-28 00:15 | 44.21140 | -76.61692 | 849 ft | 121 kts | 233° |
| 2026-04-28 00:15 | 44.20562 | -76.62732 | 1046 ft | 149 kts | 233° |
| 2026-04-28 00:15 | 44.19952 | -76.63929 | 1497 ft | 157 kts | 232° |
| 2026-04-28 00:16 | 44.19329 | -76.65236 | 1922 ft | 164 kts | 240° |
| 2026-04-28 00:16 | 44.19174 | -76.66831 | 2433 ft | 173 kts | 275° |
| 2026-04-28 00:16 | 44.19657 | -76.68358 | 2988 ft | 181 kts | 310° |
| 2026-04-28 00:16 | 44.20763 | -76.69174 | 3495 ft | 182 kts | 348° |
| 2026-04-28 00:17 | 44.22024 | -76.69507 | 3950 ft | 186 kts | 349° |
| 2026-04-28 00:17 | 44.23292 | -76.69842 | 4423 ft | 188 kts | 349° |
| 2026-04-28 00:17 | 44.24587 | -76.70185 | 4957 ft | 190 kts | 349° |
| 2026-04-28 00:17 | 44.25890 | -76.70528 | 5449 ft | 191 kts | 349° |
| 2026-04-28 00:18 | 44.27198 | -76.70874 | 5941 ft | 192 kts | 349° |
| 2026-04-28 00:18 | 44.28518 | -76.71223 | 6454 ft | 193 kts | 349° |
| 2026-04-28 00:18 | 44.29842 | -76.71574 | 6996 ft | 194 kts | 349° |
| 2026-04-28 00:18 | 44.31165 | -76.71925 | 7455 ft | 193 kts | 349° |
| 2026-04-28 00:19 | 44.32485 | -76.72276 | 7959 ft | 193 kts | 349° |
| 2026-04-28 00:19 | 44.33802 | -76.72625 | 8498 ft | 192 kts | 349° |
| 2026-04-28 00:19 | 44.35117 | -76.72975 | 9044 ft | 192 kts | 349° |
| 2026-04-28 00:19 | 44.36429 | -76.73324 | 9528 ft | 191 kts | 348° |
| 2026-04-28 00:20 | 44.37739 | -76.73672 | 10013 ft | 192 kts | 348° |
| 2026-04-28 00:20 | 44.39049 | -76.74021 | 10472 ft | 192 kts | 348° |
| 2026-04-28 00:20 | 44.40364 | -76.74371 | 10947 ft | 193 kts | 348° |
| 2026-04-28 00:20 | 44.41683 | -76.74722 | 11386 ft | 194 kts | 348° |
| 2026-04-28 00:21 | 44.43009 | -76.75076 | 11830 ft | 195 kts | 348° |
| 2026-04-28 00:21 | 44.44343 | -76.75432 | 12232 ft | 196 kts | 348° |
| 2026-04-28 00:21 | 44.45683 | -76.75789 | 12655 ft | 196 kts | 348° |
| 2026-04-28 00:21 | 44.47029 | -76.76148 | 13061 ft | 197 kts | 348° |
| 2026-04-28 00:22 | 44.48380 | -76.76509 | 13480 ft | 198 kts | 348° |
| 2026-04-28 00:22 | 44.49739 | -76.76871 | 13909 ft | 199 kts | 348° |
| 2026-04-28 00:22 | 44.51104 | -76.77237 | 14283 ft | 200 kts | 348° |
| 2026-04-28 00:22 | 44.52473 | -76.77603 | 14638 ft | 201 kts | 348° |
| 2026-04-28 00:23 | 44.53848 | -76.77971 | 15012 ft | 201 kts | 348° |
| 2026-04-28 00:23 | 44.55226 | -76.78340 | 15389 ft | 202 kts | 348° |
| 2026-04-28 00:23 | 44.56610 | -76.78710 | 15756 ft | 203 kts | 348° |
| 2026-04-28 00:23 | 44.58000 | -76.79083 | 16131 ft | 204 kts | 348° |
| 2026-04-28 00:24 | 44.59394 | -76.79456 | 16496 ft | 204 kts | 348° |
| 2026-04-28 00:24 | 44.60791 | -76.79831 | 16868 ft | 205 kts | 348° |
| 2026-04-28 00:24 | 44.62195 | -76.80207 | 17234 ft | 206 kts | 348° |
| 2026-04-28 00:24 | 44.63604 | -76.80586 | 17609 ft | 207 kts | 348° |
| 2026-04-28 00:25 | 44.65018 | -76.80966 | 17977 ft | 207 kts | 348° |
| 2026-04-28 00:25 | 44.66418 | -76.81342 | 18324 ft | 208 kts | 348° |
| 2026-04-28 00:25 | 44.67860 | -76.81729 | 18657 ft | 209 kts | 348° |
| 2026-04-28 00:25 | 44.69290 | -76.82114 | 18955 ft | 210 kts | 348° |
| 2026-04-28 00:26 | 44.70703 | -76.82494 | 19262 ft | 210 kts | 348° |
| 2026-04-28 00:26 | 44.72142 | -76.82882 | 19561 ft | 211 kts | 348° |
| 2026-04-28 00:26 | 44.73587 | -76.83271 | 19872 ft | 212 kts | 348° |
| 2026-04-28 00:26 | 44.75036 | -76.83662 | 20184 ft | 212 kts | 348° |
| 2026-04-28 00:27 | 44.76490 | -76.84054 | 20492 ft | 213 kts | 348° |
| 2026-04-28 00:27 | 44.77949 | -76.84448 | 20797 ft | 214 kts | 348° |
| 2026-04-28 00:27 | 44.79414 | -76.84843 | 21098 ft | 215 kts | 348° |
| 2026-04-28 00:27 | 44.80885 | -76.85241 | 21408 ft | 216 kts | 348° |
| 2026-04-28 00:28 | 44.82361 | -76.85639 | 21699 ft | 216 kts | 348° |
| 2026-04-28 00:28 | 44.83840 | -76.86038 | 21873 ft | 217 kts | 348° |
| 2026-04-28 00:28 | 44.85327 | -76.86440 | 22035 ft | 218 kts | 348° |
| 2026-04-28 00:28 | 44.86818 | -76.86844 | 22196 ft | 219 kts | 348° |
| 2026-04-28 00:29 | 44.88337 | -76.87255 | 22194 ft | 226 kts | 348° |
| 2026-04-28 00:29 | 44.89903 | -76.87679 | 22196 ft | 232 kts | 348° |
| 2026-04-28 00:29 | 44.91502 | -76.88111 | 22197 ft | 236 kts | 348° |
| 2026-04-28 00:29 | 44.93124 | -76.88551 | 22207 ft | 239 kts | 348° |
| 2026-04-28 00:30 | 44.94765 | -76.88997 | 22210 ft | 241 kts | 348° |
| 2026-04-28 00:30 | 44.96419 | -76.89447 | 22208 ft | 243 kts | 348° |
| 2026-04-28 00:30 | 44.98083 | -76.89900 | 22211 ft | 244 kts | 348° |
| 2026-04-28 00:30 | 44.99732 | -76.90348 | 22204 ft | 245 kts | 348° |
| 2026-04-28 00:31 | 45.01409 | -76.90804 | 22210 ft | 246 kts | 348° |
| 2026-04-28 00:31 | 45.03090 | -76.91262 | 22209 ft | 246 kts | 347° |
| 2026-04-28 00:31 | 45.04781 | -76.91723 | 22197 ft | 250 kts | 347° |
| 2026-04-28 00:31 | 45.06526 | -76.92200 | 22206 ft | 254 kts | 347° |
| 2026-04-28 00:32 | 45.08275 | -76.92676 | 22202 ft | 257 kts | 347° |
| 2026-04-28 00:32 | 45.10015 | -76.93151 | 22214 ft | 260 kts | 347° |
| 2026-04-28 00:32 | 45.11797 | -76.93637 | 22209 ft | 262 kts | 347° |
| 2026-04-28 00:32 | 45.13590 | -76.94127 | 22204 ft | 263 kts | 347° |
| 2026-04-28 00:33 | 45.15390 | -76.94620 | 22208 ft | 264 kts | 347° |
| 2026-04-28 00:33 | 45.17195 | -76.95114 | 22212 ft | 265 kts | 347° |
| 2026-04-28 00:33 | 45.19005 | -76.95610 | 22207 ft | 265 kts | 347° |
| 2026-04-28 00:33 | 45.20816 | -76.96106 | 22202 ft | 265 kts | 347° |
| 2026-04-28 00:34 | 45.22629 | -76.96603 | 22200 ft | 265 kts | 347° |
| 2026-04-28 00:34 | 45.24444 | -76.97101 | 22205 ft | 265 kts | 347° |
| 2026-04-28 00:34 | 45.26257 | -76.97599 | 22200 ft | 266 kts | 347° |
| 2026-04-28 00:34 | 45.28074 | -76.98098 | 22195 ft | 266 kts | 347° |
| 2026-04-28 00:35 | 45.29887 | -76.98597 | 22202 ft | 266 kts | 347° |
| 2026-04-28 00:35 | 45.31705 | -76.99097 | 22205 ft | 266 kts | 347° |
| 2026-04-28 00:35 | 45.33523 | -76.99597 | 22205 ft | 266 kts | 347° |
| 2026-04-28 00:35 | 45.35342 | -77.00098 | 22198 ft | 266 kts | 347° |
| 2026-04-28 00:36 | 45.37160 | -77.00600 | 22197 ft | 266 kts | 347° |
| 2026-04-28 00:36 | 45.38972 | -77.01099 | 22194 ft | 266 kts | 347° |
| 2026-04-28 00:36 | 45.40791 | -77.01601 | 22196 ft | 266 kts | 347° |
| 2026-04-28 00:36 | 45.42603 | -77.02101 | 22199 ft | 266 kts | 347° |
| 2026-04-28 00:37 | 45.44419 | -77.02603 | 22191 ft | 266 kts | 347° |
| 2026-04-28 00:37 | 45.46235 | -77.03106 | 22200 ft | 266 kts | 347° |
| 2026-04-28 00:37 | 45.48051 | -77.03608 | 22195 ft | 266 kts | 347° |
| 2026-04-28 00:37 | 45.49868 | -77.04111 | 22193 ft | 266 kts | 347° |
| 2026-04-28 00:38 | 45.51684 | -77.04615 | 22194 ft | 266 kts | 347° |
| 2026-04-28 00:38 | 45.53500 | -77.05118 | 22193 ft | 266 kts | 347° |
| 2026-04-28 00:38 | 45.55318 | -77.05622 | 22192 ft | 266 kts | 347° |
| 2026-04-28 00:38 | 45.57135 | -77.06127 | 22187 ft | 266 kts | 347° |
| 2026-04-28 00:39 | 45.58952 | -77.06632 | 22191 ft | 266 kts | 347° |
| 2026-04-28 00:39 | 45.60770 | -77.07137 | 22188 ft | 266 kts | 347° |
| 2026-04-28 00:39 | 45.62583 | -77.07641 | 22191 ft | 266 kts | 347° |
| 2026-04-28 00:39 | 45.64403 | -77.08148 | 22189 ft | 267 kts | 347° |
| 2026-04-28 00:40 | 45.66224 | -77.08655 | 22188 ft | 266 kts | 347° |
| 2026-04-28 00:40 | 45.68044 | -77.09163 | 22179 ft | 267 kts | 347° |
| 2026-04-28 00:40 | 45.69864 | -77.09670 | 22180 ft | 266 kts | 347° |
| 2026-04-28 00:40 | 45.71689 | -77.10179 | 22170 ft | 267 kts | 347° |
| 2026-04-28 00:41 | 45.73515 | -77.10689 | 22172 ft | 267 kts | 347° |
| 2026-04-28 00:41 | 45.75312 | -77.11191 | 22170 ft | 267 kts | 347° |
| 2026-04-28 00:41 | 45.77140 | -77.11702 | 22167 ft | 268 kts | 347° |
| 2026-04-28 00:41 | 45.78968 | -77.12214 | 22168 ft | 268 kts | 347° |
| 2026-04-28 00:42 | 45.80798 | -77.12726 | 22167 ft | 268 kts | 347° |
| 2026-04-28 00:42 | 45.82655 | -77.13246 | 22160 ft | 269 kts | 347° |
| 2026-04-28 00:42 | 45.84464 | -77.13754 | 22161 ft | 268 kts | 347° |
| 2026-04-28 00:42 | 45.86298 | -77.14268 | 22160 ft | 269 kts | 347° |
| 2026-04-28 00:43 | 45.88133 | -77.14784 | 22162 ft | 269 kts | 347° |
| 2026-04-28 00:43 | 45.89971 | -77.15300 | 22156 ft | 269 kts | 347° |
| 2026-04-28 00:43 | 45.91810 | -77.15817 | 22157 ft | 269 kts | 347° |
| 2026-04-28 00:43 | 45.93646 | -77.16334 | 22157 ft | 269 kts | 347° |
| 2026-04-28 00:44 | 45.95485 | -77.16852 | 22157 ft | 269 kts | 347° |
| 2026-04-28 00:44 | 45.97324 | -77.17370 | 22158 ft | 269 kts | 347° |
| 2026-04-28 00:44 | 45.99166 | -77.17889 | 22148 ft | 270 kts | 347° |
| 2026-04-28 00:44 | 46.01011 | -77.18410 | 22150 ft | 270 kts | 347° |
| 2026-04-28 00:45 | 46.02855 | -77.18930 | 22152 ft | 270 kts | 347° |
| 2026-04-28 00:45 | 46.04698 | -77.19452 | 22151 ft | 270 kts | 347° |
| 2026-04-28 00:45 | 46.06541 | -77.19972 | 22155 ft | 270 kts | 347° |
| 2026-04-28 00:45 | 46.08380 | -77.20493 | 22154 ft | 270 kts | 347° |
| 2026-04-28 00:46 | 46.10222 | -77.21014 | 22157 ft | 270 kts | 347° |
| 2026-04-28 00:46 | 46.12066 | -77.21537 | 22158 ft | 270 kts | 347° |
| 2026-04-28 00:46 | 46.13911 | -77.22060 | 22161 ft | 270 kts | 347° |
| 2026-04-28 00:46 | 46.15755 | -77.22583 | 22161 ft | 270 kts | 347° |
| 2026-04-28 00:47 | 46.17600 | -77.23106 | 22162 ft | 270 kts | 347° |
| 2026-04-28 00:47 | 46.19445 | -77.23630 | 22165 ft | 270 kts | 347° |
| 2026-04-28 00:47 | 46.21290 | -77.24154 | 22169 ft | 270 kts | 347° |
| 2026-04-28 00:47 | 46.23135 | -77.24679 | 22171 ft | 270 kts | 347° |
| 2026-04-28 00:48 | 46.24979 | -77.25204 | 22175 ft | 270 kts | 347° |
| 2026-04-28 00:48 | 46.26827 | -77.25730 | 22172 ft | 271 kts | 347° |
| 2026-04-28 00:48 | 46.28675 | -77.26257 | 22176 ft | 271 kts | 347° |
| 2026-04-28 00:48 | 46.30525 | -77.26785 | 22176 ft | 271 kts | 347° |
| 2026-04-28 00:49 | 46.32374 | -77.27312 | 22174 ft | 271 kts | 347° |
| 2026-04-28 00:49 | 46.34223 | -77.27840 | 22175 ft | 271 kts | 347° |
| 2026-04-28 00:49 | 46.36072 | -77.28369 | 22174 ft | 271 kts | 347° |
| 2026-04-28 00:49 | 46.37921 | -77.28898 | 22176 ft | 271 kts | 347° |
| 2026-04-28 00:50 | 46.39771 | -77.29427 | 22175 ft | 271 kts | 347° |
| 2026-04-28 00:50 | 46.41617 | -77.29956 | 22172 ft | 271 kts | 347° |
| 2026-04-28 00:50 | 46.43468 | -77.30486 | 22174 ft | 271 kts | 347° |
| 2026-04-28 00:50 | 46.45320 | -77.31017 | 22173 ft | 271 kts | 347° |
| 2026-04-28 00:51 | 46.46548 | -77.31369 | 22170 ft | 271 kts | 347° |
| 2026-04-28 00:51 | 46.48400 | -77.31901 | 22174 ft | 271 kts | 347° |
| 2026-04-28 00:51 | 46.50252 | -77.32433 | 22173 ft | 271 kts | 347° |
| 2026-04-28 00:51 | 46.52104 | -77.32966 | 22174 ft | 271 kts | 347° |
| 2026-04-28 00:52 | 46.53957 | -77.33499 | 22176 ft | 271 kts | 347° |
| 2026-04-28 00:52 | 46.55808 | -77.34032 | 22172 ft | 271 kts | 347° |
| 2026-04-28 00:52 | 46.57661 | -77.34565 | 22175 ft | 271 kts | 346° |
| 2026-04-28 00:52 | 46.59512 | -77.35099 | 22177 ft | 272 kts | 347° |
| 2026-04-28 00:53 | 46.61366 | -77.35634 | 22177 ft | 272 kts | 346° |
| 2026-04-28 00:53 | 46.63221 | -77.36170 | 22173 ft | 272 kts | 346° |
| 2026-04-28 00:53 | 46.65077 | -77.36706 | 22174 ft | 272 kts | 346° |
| 2026-04-28 00:53 | 46.66933 | -77.37242 | 22177 ft | 272 kts | 346° |
| 2026-04-28 00:54 | 46.68790 | -77.37780 | 22174 ft | 272 kts | 346° |
| 2026-04-28 00:54 | 46.70647 | -77.38317 | 22175 ft | 272 kts | 346° |
| 2026-04-28 00:54 | 46.72506 | -77.38856 | 22172 ft | 272 kts | 346° |
| 2026-04-28 00:54 | 46.74365 | -77.39395 | 22171 ft | 272 kts | 346° |
| 2026-04-28 00:55 | 46.76220 | -77.39933 | 22169 ft | 273 kts | 346° |
| 2026-04-28 00:55 | 46.78085 | -77.40475 | 22172 ft | 273 kts | 346° |
| 2026-04-28 00:55 | 46.79947 | -77.41015 | 22172 ft | 273 kts | 346° |
| 2026-04-28 00:55 | 46.81806 | -77.41556 | 22165 ft | 273 kts | 346° |
| 2026-04-28 00:56 | 46.83669 | -77.42098 | 22169 ft | 273 kts | 346° |
| 2026-04-28 00:56 | 46.85533 | -77.42640 | 22167 ft | 273 kts | 346° |
| 2026-04-28 00:56 | 46.87396 | -77.43183 | 22171 ft | 273 kts | 346° |
| 2026-04-28 00:56 | 46.89261 | -77.43727 | 22166 ft | 273 kts | 346° |
| 2026-04-28 00:57 | 46.91127 | -77.44272 | 22163 ft | 273 kts | 346° |
| 2026-04-28 00:57 | 46.92968 | -77.44809 | 22163 ft | 274 kts | 346° |
| 2026-04-28 00:57 | 46.94859 | -77.45362 | 22162 ft | 274 kts | 346° |
| 2026-04-28 00:57 | 46.96706 | -77.45902 | 22145 ft | 275 kts | 346° |
| 2026-04-28 00:58 | 46.98621 | -77.46464 | 21751 ft | 285 kts | 346° |
| 2026-04-28 00:58 | 47.00585 | -77.47037 | 21372 ft | 291 kts | 346° |
| 2026-04-28 00:58 | 47.02596 | -77.47626 | 20993 ft | 297 kts | 346° |
| 2026-04-28 00:58 | 47.04612 | -77.48213 | 20619 ft | 292 kts | 346° |
| 2026-04-28 00:59 | 47.06590 | -77.48791 | 20250 ft | 288 kts | 346° |
| 2026-04-28 00:59 | 47.08558 | -77.49374 | 19886 ft | 290 kts | 346° |
| 2026-04-28 00:59 | 47.10548 | -77.49968 | 19532 ft | 294 kts | 346° |
| 2026-04-28 00:59 | 47.12575 | -77.50561 | 19175 ft | 299 kts | 346° |
| 2026-04-28 01:00 | 47.14631 | -77.51159 | 18824 ft | 303 kts | 346° |
| 2026-04-28 01:00 | 47.16699 | -77.51767 | 18477 ft | 305 kts | 346° |
| 2026-04-28 01:00 | 47.18782 | -77.52383 | 18074 ft | 306 kts | 346° |
| 2026-04-28 01:00 | 47.20870 | -77.53000 | 17677 ft | 306 kts | 346° |
| 2026-04-28 01:01 | 47.22959 | -77.53616 | 17286 ft | 306 kts | 346° |
| 2026-04-28 01:01 | 47.25038 | -77.54229 | 16914 ft | 303 kts | 346° |
| 2026-04-28 01:01 | 47.27087 | -77.54835 | 16605 ft | 298 kts | 346° |
| 2026-04-28 01:01 | 47.29106 | -77.55433 | 16300 ft | 294 kts | 346° |
| 2026-04-28 01:02 | 47.31101 | -77.56024 | 15996 ft | 291 kts | 346° |
| 2026-04-28 01:02 | 47.33079 | -77.56611 | 15702 ft | 289 kts | 346° |
| 2026-04-28 01:02 | 47.35044 | -77.57195 | 15405 ft | 287 kts | 346° |
| 2026-04-28 01:02 | 47.37000 | -77.57775 | 15119 ft | 286 kts | 346° |
| 2026-04-28 01:03 | 47.38951 | -77.58355 | 14830 ft | 285 kts | 346° |
| 2026-04-28 01:03 | 47.40894 | -77.58933 | 14543 ft | 284 kts | 346° |
| 2026-04-28 01:03 | 47.42830 | -77.59510 | 14259 ft | 284 kts | 346° |
| 2026-04-28 01:03 | 47.44770 | -77.60088 | 13978 ft | 284 kts | 346° |
| 2026-04-28 01:04 | 47.46710 | -77.60666 | 13664 ft | 284 kts | 346° |
| 2026-04-28 01:04 | 47.48647 | -77.61243 | 13346 ft | 284 kts | 347° |
| 2026-04-28 01:04 | 47.50579 | -77.61820 | 13036 ft | 283 kts | 347° |
| 2026-04-28 01:04 | 47.52508 | -77.62396 | 12732 ft | 282 kts | 347° |
| 2026-04-28 01:05 | 47.54432 | -77.62971 | 12424 ft | 282 kts | 347° |
| 2026-04-28 01:05 | 47.56350 | -77.63546 | 12119 ft | 281 kts | 347° |
| 2026-04-28 01:05 | 47.58264 | -77.64119 | 11818 ft | 280 kts | 347° |
| 2026-04-28 01:05 | 47.60171 | -77.64690 | 11521 ft | 280 kts | 347° |
| 2026-04-28 01:06 | 47.62077 | -77.65262 | 11225 ft | 279 kts | 347° |
| 2026-04-28 01:06 | 47.63979 | -77.65832 | 10936 ft | 279 kts | 347° |
| 2026-04-28 01:06 | 47.65851 | -77.66395 | 10647 ft | 278 kts | 348° |
| 2026-04-28 01:06 | 47.67744 | -77.66964 | 10358 ft | 277 kts | 348° |
| 2026-04-28 01:07 | 47.69633 | -77.67532 | 10079 ft | 277 kts | 348° |
| 2026-04-28 01:07 | 47.71541 | -77.68105 | 9763 ft | 275 kts | 348° |
| 2026-04-28 01:07 | 47.73405 | -77.68666 | 9446 ft | 272 kts | 348° |
| 2026-04-28 01:07 | 47.75251 | -77.69223 | 9130 ft | 270 kts | 348° |
| 2026-04-28 01:08 | 47.77087 | -77.69777 | 8824 ft | 268 kts | 348° |
| 2026-04-28 01:08 | 47.78913 | -77.70328 | 8552 ft | 267 kts | 348° |
| 2026-04-28 01:08 | 47.80705 | -77.70871 | 8382 ft | 268 kts | 348° |
| 2026-04-28 01:08 | 47.82537 | -77.71425 | 8197 ft | 269 kts | 348° |
| 2026-04-28 01:09 | 47.84370 | -77.71980 | 8018 ft | 270 kts | 348° |
| 2026-04-28 01:09 | 47.86208 | -77.72536 | 7847 ft | 269 kts | 348° |
| 2026-04-28 01:09 | 47.88051 | -77.72680 | 7654 ft | 266 kts | 9° |
| 2026-04-28 01:09 | 47.89880 | -77.72207 | 7484 ft | 268 kts | 12° |
| 2026-04-28 01:10 | 47.91723 | -77.71681 | 7314 ft | 271 kts | 12° |
| 2026-04-28 01:10 | 47.93584 | -77.71152 | 7140 ft | 273 kts | 12° |
| 2026-04-28 01:10 | 47.95455 | -77.70634 | 6970 ft | 274 kts | 12° |
| 2026-04-28 01:10 | 47.97330 | -77.70115 | 6797 ft | 274 kts | 12° |
| 2026-04-28 01:11 | 47.99206 | -77.69592 | 6631 ft | 275 kts | 12° |
| 2026-04-28 01:11 | 48.01077 | -77.69069 | 6456 ft | 272 kts | 12° |
| 2026-04-28 01:11 | 48.02928 | -77.68551 | 6285 ft | 270 kts | 12° |
| 2026-04-28 01:11 | 48.04773 | -77.68035 | 5957 ft | 270 kts | 12° |
| 2026-04-28 01:12 | 48.06625 | -77.67582 | 5569 ft | 270 kts | 3° |
| 2026-04-28 01:12 | 48.08483 | -77.67793 | 5198 ft | 267 kts | 351° |
| 2026-04-28 01:12 | 48.10311 | -77.68231 | 4822 ft | 263 kts | 350° |
| 2026-04-28 01:12 | 48.12072 | -77.68685 | 4447 ft | 250 kts | 349° |
| 2026-04-28 01:13 | 48.13746 | -77.69126 | 4107 ft | 237 kts | 350° |
| 2026-04-28 01:13 | 48.16882 | -77.69997 | 3778 ft | 234 kts | 349° |
| 2026-04-28 01:13 | 48.18492 | -77.70516 | 3468 ft | 238 kts | 339° |
| 2026-04-28 01:14 | 48.19762 | -77.72023 | 3198 ft | 233 kts | 300° |
| 2026-04-28 01:14 | 48.20190 | -77.74262 | 2930 ft | 219 kts | 266° |
| 2026-04-28 01:14 | 48.20079 | -77.76442 | 2902 ft | 205 kts | 258° |
| 2026-04-28 01:14 | 48.19863 | -77.78494 | 2905 ft | 192 kts | 243° |
| 2026-04-28 01:15 | 48.19027 | -77.79855 | 2908 ft | 172 kts | 203° |
| 2026-04-28 01:15 | 48.17980 | -77.80563 | 2903 ft | 166 kts | 197° |
| 2026-04-28 01:15 | 48.16874 | -77.81236 | 2703 ft | 170 kts | 192° |
| 2026-04-28 01:15 | 48.15728 | -77.81203 | 2523 ft | 165 kts | 168° |
| 2026-04-28 01:16 | 48.14633 | -77.80924 | 2495 ft | 158 kts | 167° |
| 2026-04-28 01:16 | 48.13568 | -77.80641 | 2482 ft | 144 kts | 166° |
| 2026-04-28 01:16 | 48.12633 | -77.80367 | 2327 ft | 135 kts | 165° |
| 2026-04-28 01:16 | 48.11723 | -77.80102 | 2149 ft | 130 kts | 166° |
| 2026-04-28 01:17 | 48.10866 | -77.79857 | 1976 ft | 121 kts | 166° |
| 2026-04-28 01:17 | 48.10062 | -77.79625 | 1814 ft | 114 kts | 166° |
| 2026-04-28 01:17 | 48.09352 | -77.79422 | 1666 ft | 95 kts | 167° |
| 2026-04-28 01:17 | 48.08722 | -77.79235 | 1543 ft | 93 kts | 166° |
| 2026-04-28 01:18 | 48.08071 | -77.79050 | 1413 ft | 96 kts | 168° |
| 2026-04-28 01:18 | 48.07408 | -77.78871 | 1317 ft | 98 kts | 167° |
| 2026-04-28 01:18 | 48.06761 | -77.78684 | 1169 ft | 91 kts | 167° |
| 2026-04-28 01:18 | 48.06187 | -77.78517 | 1108 ft | 74 kts | 167° |
| 2026-04-28 01:19 | 48.05773 | -77.78400 | 1105 ft | 41 kts | 169° |
| 2026-04-28 01:19 | 48.05588 | -77.78344 | 1103 ft | 23 kts | 168° |
| 2026-04-28 01:19 | 48.05443 | -77.78300 | 1103 ft | 20 kts | 171° |
| 2026-04-28 01:19 | 48.05327 | -77.78316 | 1104 ft | 14 kts | 240° |
| 2026-04-28 01:20 | 48.05309 | -77.78419 | 1102 ft | 10 kts | 259° |
| 2026-04-28 01:20 | 48.05295 | -77.78527 | 1102 ft | 10 kts | 259° |
| 2026-04-28 01:20 | 48.05304 | -77.78606 | 1103 ft | 8 kts | 316° |
| 2026-04-28 01:20 | 48.05332 | -77.78667 | 1103 ft | 4 kts | 304° |
| 2026-04-28 01:21 | 48.05333 | -77.78668 | 1103 ft | 0 kts | 304° |